sensor_id;sensor_type;location;lat;lon;timestamp;temperature;humidity
71206;SHT31;58935;54.498;18.544;2023-04-08T00:00:33;7.23;84.72
71206;SHT31;58935;54.498;18.544;2023-04-08T00:03:00;7.19;84.84
71206;SHT31;58935;54.498;18.544;2023-04-08T00:05:25;7.17;84.98
71206;SHT31;58935;54.498;18.544;2023-04-08T00:07:51;7.16;85.03
71206;SHT31;58935;54.498;18.544;2023-04-08T00:10:16;7.18;85.14
71206;SHT31;58935;54.498;18.544;2023-04-08T00:12:42;7.19;85.20
71206;SHT31;58935;54.498;18.544;2023-04-08T00:15:07;7.20;85.20
71206;SHT31;58935;54.498;18.544;2023-04-08T00:17:33;7.20;85.19
71206;SHT31;58935;54.498;18.544;2023-04-08T00:19:59;7.20;85.14
71206;SHT31;58935;54.498;18.544;2023-04-08T00:22:24;7.21;85.12
71206;SHT31;58935;54.498;18.544;2023-04-08T00:24:52;7.21;85.12
71206;SHT31;58935;54.498;18.544;2023-04-08T00:27:18;7.24;85.22
71206;SHT31;58935;54.498;18.544;2023-04-08T00:29:43;7.31;85.44
71206;SHT31;58935;54.498;18.544;2023-04-08T00:32:08;7.41;85.37
71206;SHT31;58935;54.498;18.544;2023-04-08T00:34:34;7.49;85.19
71206;SHT31;58935;54.498;18.544;2023-04-08T00:36:59;7.56;84.99
71206;SHT31;58935;54.498;18.544;2023-04-08T00:39:25;7.61;84.77
71206;SHT31;58935;54.498;18.544;2023-04-08T00:41:50;7.66;84.73
71206;SHT31;58935;54.498;18.544;2023-04-08T00:44:16;7.71;84.62
71206;SHT31;58935;54.498;18.544;2023-04-08T00:46:41;7.78;84.60
71206;SHT31;58935;54.498;18.544;2023-04-08T00:49:09;7.87;84.58
71206;SHT31;58935;54.498;18.544;2023-04-08T00:51:35;7.94;84.44
71206;SHT31;58935;54.498;18.544;2023-04-08T00:54:03;7.99;84.28
71206;SHT31;58935;54.498;18.544;2023-04-08T00:56:30;8.05;84.15
71206;SHT31;58935;54.498;18.544;2023-04-08T00:58:59;8.09;84.01
71206;SHT31;58935;54.498;18.544;2023-04-08T01:01:35;8.10;83.62
71206;SHT31;58935;54.498;18.544;2023-04-08T01:04:14;8.12;83.40
71206;SHT31;58935;54.498;18.544;2023-04-08T01:07:06;8.09;83.29
71206;SHT31;58935;54.498;18.544;2023-04-08T01:09:41;8.04;83.11
71206;SHT31;58935;54.498;18.544;2023-04-08T01:12:10;7.99;83.11
71206;SHT31;58935;54.498;18.544;2023-04-08T01:14:42;7.93;83.17
71206;SHT31;58935;54.498;18.544;2023-04-08T01:17:11;7.89;83.34
71206;SHT31;58935;54.498;18.544;2023-04-08T01:19:38;7.86;83.30
71206;SHT31;58935;54.498;18.544;2023-04-08T01:24:56;7.75;83.47
71206;SHT31;58935;54.498;18.544;2023-04-08T01:27:27;7.76;83.66
71206;SHT31;58935;54.498;18.544;2023-04-08T01:29:58;7.79;83.60
71206;SHT31;58935;54.498;18.544;2023-04-08T01:32:27;7.84;83.81
71206;SHT31;58935;54.498;18.544;2023-04-08T01:34:55;7.94;83.92
71206;SHT31;58935;54.498;18.544;2023-04-08T01:37:22;7.98;83.56
71206;SHT31;58935;54.498;18.544;2023-04-08T01:39:49;8.02;83.49
71206;SHT31;58935;54.498;18.544;2023-04-08T01:42:16;8.04;83.31
71206;SHT31;58935;54.498;18.544;2023-04-08T01:44:44;8.00;83.05
71206;SHT31;58935;54.498;18.544;2023-04-08T01:47:10;7.97;83.06
71206;SHT31;58935;54.498;18.544;2023-04-08T01:49:38;7.99;83.30
71206;SHT31;58935;54.498;18.544;2023-04-08T01:52:08;8.03;83.39
71206;SHT31;58935;54.498;18.544;2023-04-08T01:54:33;8.09;83.27
71206;SHT31;58935;54.498;18.544;2023-04-08T01:57:03;8.15;83.24
71206;SHT31;58935;54.498;18.544;2023-04-08T01:59:33;8.17;83.06
71206;SHT31;58935;54.498;18.544;2023-04-08T02:02:01;8.18;82.85
71206;SHT31;58935;54.498;18.544;2023-04-08T02:04:29;8.18;82.81
71206;SHT31;58935;54.498;18.544;2023-04-08T02:06:55;8.19;82.80
71206;SHT31;58935;54.498;18.544;2023-04-08T02:09:23;8.17;82.80
71206;SHT31;58935;54.498;18.544;2023-04-08T02:11:49;8.17;82.69
71206;SHT31;58935;54.498;18.544;2023-04-08T02:14:14;8.17;82.63
71206;SHT31;58935;54.498;18.544;2023-04-08T02:16:45;8.21;82.54
71206;SHT31;58935;54.498;18.544;2023-04-08T02:19:28;8.22;82.33
71206;SHT31;58935;54.498;18.544;2023-04-08T02:21:56;8.27;82.48
71206;SHT31;58935;54.498;18.544;2023-04-08T02:24:28;8.32;82.45
71206;SHT31;58935;54.498;18.544;2023-04-08T02:26:56;8.31;81.99
71206;SHT31;58935;54.498;18.544;2023-04-08T02:29:23;8.29;81.90
71206;SHT31;58935;54.498;18.544;2023-04-08T02:31:49;8.25;81.88
71206;SHT31;58935;54.498;18.544;2023-04-08T02:34:15;8.21;82.01
71206;SHT31;58935;54.498;18.544;2023-04-08T02:36:42;8.22;82.07
71206;SHT31;58935;54.498;18.544;2023-04-08T02:39:10;8.19;82.00
71206;SHT31;58935;54.498;18.544;2023-04-08T02:41:40;8.16;82.03
71206;SHT31;58935;54.498;18.544;2023-04-08T02:44:05;8.13;82.01
71206;SHT31;58935;54.498;18.544;2023-04-08T02:46:31;8.12;82.10
71206;SHT31;58935;54.498;18.544;2023-04-08T02:48:56;8.13;82.12
71206;SHT31;58935;54.498;18.544;2023-04-08T02:51:22;8.14;82.10
71206;SHT31;58935;54.498;18.544;2023-04-08T02:53:47;8.17;82.36
71206;SHT31;58935;54.498;18.544;2023-04-08T02:56:12;8.20;82.37
71206;SHT31;58935;54.498;18.544;2023-04-08T02:58:38;8.23;82.39
71206;SHT31;58935;54.498;18.544;2023-04-08T03:01:03;8.25;82.40
71206;SHT31;58935;54.498;18.544;2023-04-08T03:03:29;8.27;82.36
71206;SHT31;58935;54.498;18.544;2023-04-08T03:05:55;8.26;82.29
71206;SHT31;58935;54.498;18.544;2023-04-08T03:08:23;8.26;82.12
71206;SHT31;58935;54.498;18.544;2023-04-08T03:10:49;8.24;82.13
71206;SHT31;58935;54.498;18.544;2023-04-08T03:13:15;8.25;82.14
71206;SHT31;58935;54.498;18.544;2023-04-08T03:15:41;8.24;82.16
71206;SHT31;58935;54.498;18.544;2023-04-08T03:18:07;8.24;82.15
71206;SHT31;58935;54.498;18.544;2023-04-08T03:20:33;8.26;82.26
71206;SHT31;58935;54.498;18.544;2023-04-08T03:23:01;8.28;82.24
71206;SHT31;58935;54.498;18.544;2023-04-08T03:25:26;8.28;82.12
71206;SHT31;58935;54.498;18.544;2023-04-08T03:27:53;8.29;82.14
71206;SHT31;58935;54.498;18.544;2023-04-08T03:30:19;8.27;82.17
71206;SHT31;58935;54.498;18.544;2023-04-08T03:32:45;8.27;82.20
71206;SHT31;58935;54.498;18.544;2023-04-08T03:35:10;8.26;82.30
71206;SHT31;58935;54.498;18.544;2023-04-08T03:37:35;8.28;82.44
71206;SHT31;58935;54.498;18.544;2023-04-08T03:40:01;8.31;82.36
71206;SHT31;58935;54.498;18.544;2023-04-08T03:42:27;8.33;82.29
71206;SHT31;58935;54.498;18.544;2023-04-08T03:44:52;8.36;82.27
71206;SHT31;58935;54.498;18.544;2023-04-08T03:47:20;8.39;82.20
71206;SHT31;58935;54.498;18.544;2023-04-08T03:49:47;8.41;82.12
71206;SHT31;58935;54.498;18.544;2023-04-08T03:52:12;8.40;81.99
71206;SHT31;58935;54.498;18.544;2023-04-08T03:54:40;8.38;81.99
71206;SHT31;58935;54.498;18.544;2023-04-08T03:57:05;8.38;82.11
71206;SHT31;58935;54.498;18.544;2023-04-08T03:59:31;8.37;81.96
71206;SHT31;58935;54.498;18.544;2023-04-08T04:01:57;8.35;81.93
71206;SHT31;58935;54.498;18.544;2023-04-08T04:04:23;8.34;81.97
71206;SHT31;58935;54.498;18.544;2023-04-08T04:06:48;8.34;81.97
71206;SHT31;58935;54.498;18.544;2023-04-08T04:09:14;8.35;82.00
71206;SHT31;58935;54.498;18.544;2023-04-08T04:11:40;8.38;82.06
71206;SHT31;58935;54.498;18.544;2023-04-08T04:14:06;8.40;81.96
71206;SHT31;58935;54.498;18.544;2023-04-08T04:16:31;8.42;82.00
71206;SHT31;58935;54.498;18.544;2023-04-08T04:18:59;8.42;81.80
71206;SHT31;58935;54.498;18.544;2023-04-08T04:21:24;8.40;81.80
71206;SHT31;58935;54.498;18.544;2023-04-08T04:23:51;8.39;81.73
71206;SHT31;58935;54.498;18.544;2023-04-08T04:26:16;8.35;81.66
71206;SHT31;58935;54.498;18.544;2023-04-08T04:28:41;8.32;81.67
71206;SHT31;58935;54.498;18.544;2023-04-08T04:31:07;8.30;81.73
71206;SHT31;58935;54.498;18.544;2023-04-08T04:33:32;8.31;81.83
71206;SHT31;58935;54.498;18.544;2023-04-08T04:35:57;8.37;82.03
71206;SHT31;58935;54.498;18.544;2023-04-08T04:38:23;8.44;82.10
71206;SHT31;58935;54.498;18.544;2023-04-08T04:40:48;8.49;81.99
71206;SHT31;58935;54.498;18.544;2023-04-08T04:43:16;8.53;81.90
71206;SHT31;58935;54.498;18.544;2023-04-08T04:45:41;8.55;81.71
71206;SHT31;58935;54.498;18.544;2023-04-08T04:48:09;8.55;81.58
71206;SHT31;58935;54.498;18.544;2023-04-08T04:50:34;8.57;81.59
71206;SHT31;58935;54.498;18.544;2023-04-08T04:52:59;8.57;81.60
71206;SHT31;58935;54.498;18.544;2023-04-08T04:55:25;8.57;81.65
71206;SHT31;58935;54.498;18.544;2023-04-08T04:57:50;8.58;81.77
71206;SHT31;58935;54.498;18.544;2023-04-08T05:00:18;8.61;81.73
71206;SHT31;58935;54.498;18.544;2023-04-08T05:02:48;8.64;81.75
71206;SHT31;58935;54.498;18.544;2023-04-08T05:05:13;8.69;81.70
71206;SHT31;58935;54.498;18.544;2023-04-08T05:07:41;8.74;81.66
71206;SHT31;58935;54.498;18.544;2023-04-08T05:10:07;8.80;81.72
71206;SHT31;58935;54.498;18.544;2023-04-08T05:12:32;8.85;81.61
71206;SHT31;58935;54.498;18.544;2023-04-08T05:14:58;8.90;81.50
71206;SHT31;58935;54.498;18.544;2023-04-08T05:17:23;8.96;81.50
71206;SHT31;58935;54.498;18.544;2023-04-08T05:19:49;9.02;81.51
71206;SHT31;58935;54.498;18.544;2023-04-08T05:22:15;9.07;81.46
71206;SHT31;58935;54.498;18.544;2023-04-08T05:24:41;9.12;81.41
71206;SHT31;58935;54.498;18.544;2023-04-08T05:27:06;9.16;81.34
71206;SHT31;58935;54.498;18.544;2023-04-08T05:29:31;9.18;81.19
71206;SHT31;58935;54.498;18.544;2023-04-08T05:31:57;9.21;81.20
71206;SHT31;58935;54.498;18.544;2023-04-08T05:34:23;9.23;81.11
71206;SHT31;58935;54.498;18.544;2023-04-08T05:36:48;9.24;81.00
71206;SHT31;58935;54.498;18.544;2023-04-08T05:39:17;9.24;80.97
71206;SHT31;58935;54.498;18.544;2023-04-08T05:41:43;9.25;80.96
71206;SHT31;58935;54.498;18.544;2023-04-08T05:44:09;9.26;81.00
71206;SHT31;58935;54.498;18.544;2023-04-08T05:46:36;9.29;80.99
71206;SHT31;58935;54.498;18.544;2023-04-08T05:49:02;9.29;80.90
71206;SHT31;58935;54.498;18.544;2023-04-08T05:51:29;9.33;81.01
71206;SHT31;58935;54.498;18.544;2023-04-08T05:53:55;9.37;81.17
71206;SHT31;58935;54.498;18.544;2023-04-08T05:56:20;9.42;81.15
71206;SHT31;58935;54.498;18.544;2023-04-08T05:58:46;9.48;81.08
71206;SHT31;58935;54.498;18.544;2023-04-08T06:01:11;9.54;80.97
71206;SHT31;58935;54.498;18.544;2023-04-08T06:03:39;9.58;80.76
71206;SHT31;58935;54.498;18.544;2023-04-08T06:08:36;9.68;80.80
71206;SHT31;58935;54.498;18.544;2023-04-08T06:11:04;9.74;80.68
71206;SHT31;58935;54.498;18.544;2023-04-08T06:13:30;9.80;80.53
71206;SHT31;58935;54.498;18.544;2023-04-08T06:15:56;9.85;80.32
71206;SHT31;58935;54.498;18.544;2023-04-08T06:18:21;9.90;80.27
71206;SHT31;58935;54.498;18.544;2023-04-08T06:20:47;9.98;80.45
71206;SHT31;58935;54.498;18.544;2023-04-08T06:23:12;10.09;80.31
71206;SHT31;58935;54.498;18.544;2023-04-08T06:25:38;10.16;80.06
71206;SHT31;58935;54.498;18.544;2023-04-08T06:28:03;10.24;79.96
71206;SHT31;58935;54.498;18.544;2023-04-08T06:30:29;10.33;79.81
71206;SHT31;58935;54.498;18.544;2023-04-08T06:32:55;10.43;79.78
71206;SHT31;58935;54.498;18.544;2023-04-08T06:35:22;10.52;79.62
71206;SHT31;58935;54.498;18.544;2023-04-08T06:37:48;10.60;79.34
71206;SHT31;58935;54.498;18.544;2023-04-08T06:40:13;10.66;79.11
71206;SHT31;58935;54.498;18.544;2023-04-08T06:42:39;10.70;78.88
71206;SHT31;58935;54.498;18.544;2023-04-08T06:45:07;10.68;78.62
71206;SHT31;58935;54.498;18.544;2023-04-08T06:47:33;10.69;78.77
71206;SHT31;58935;54.498;18.544;2023-04-08T06:49:58;10.70;78.60
71206;SHT31;58935;54.498;18.544;2023-04-08T06:52:23;10.67;78.42
71206;SHT31;58935;54.498;18.544;2023-04-08T06:54:49;10.68;78.60
71206;SHT31;58935;54.498;18.544;2023-04-08T06:57:14;10.71;78.44
71206;SHT31;58935;54.498;18.544;2023-04-08T06:59:40;10.70;78.28
71206;SHT31;58935;54.498;18.544;2023-04-08T07:02:05;10.72;78.49
71206;SHT31;58935;54.498;18.544;2023-04-08T07:04:31;10.78;78.58
71206;SHT31;58935;54.498;18.544;2023-04-08T07:06:57;10.83;78.51
71206;SHT31;58935;54.498;18.544;2023-04-08T07:09:22;10.88;78.49
71206;SHT31;58935;54.498;18.544;2023-04-08T07:11:47;10.93;78.29
71206;SHT31;58935;54.498;18.544;2023-04-08T07:14:13;10.98;78.21
71206;SHT31;58935;54.498;18.544;2023-04-08T07:16:38;11.02;78.04
71206;SHT31;58935;54.498;18.544;2023-04-08T07:19:03;11.03;77.85
71206;SHT31;58935;54.498;18.544;2023-04-08T07:21:29;11.05;77.98
71206;SHT31;58935;54.498;18.544;2023-04-08T07:23:55;11.12;77.98
71206;SHT31;58935;54.498;18.544;2023-04-08T07:26:21;11.19;77.88
71206;SHT31;58935;54.498;18.544;2023-04-08T07:28:46;11.26;77.40
71206;SHT31;58935;54.498;18.544;2023-04-08T07:31:12;11.29;77.17
71206;SHT31;58935;54.498;18.544;2023-04-08T07:33:40;11.34;77.01
71206;SHT31;58935;54.498;18.544;2023-04-08T07:36:05;11.40;77.08
71206;SHT31;58935;54.498;18.544;2023-04-08T07:38:37;11.50;76.86
71206;SHT31;58935;54.498;18.544;2023-04-08T07:41:03;11.60;76.69
71206;SHT31;58935;54.498;18.544;2023-04-08T07:43:29;11.69;76.38
71206;SHT31;58935;54.498;18.544;2023-04-08T07:45:59;11.75;76.06
71206;SHT31;58935;54.498;18.544;2023-04-08T07:48:27;11.83;75.53
71206;SHT31;58935;54.498;18.544;2023-04-08T07:50:54;11.92;75.43
71206;SHT31;58935;54.498;18.544;2023-04-08T07:53:20;12.01;75.47
71206;SHT31;58935;54.498;18.544;2023-04-08T07:55:45;12.09;75.20
71206;SHT31;58935;54.498;18.544;2023-04-08T07:58:10;12.14;74.56
71206;SHT31;58935;54.498;18.544;2023-04-08T08:00:36;12.15;74.33
71206;SHT31;58935;54.498;18.544;2023-04-08T08:03:01;12.14;74.28
71206;SHT31;58935;54.498;18.544;2023-04-08T08:05:27;12.07;74.46
71206;SHT31;58935;54.498;18.544;2023-04-08T08:07:52;12.11;74.91
71206;SHT31;58935;54.498;18.544;2023-04-08T08:10:19;12.11;74.69
71206;SHT31;58935;54.498;18.544;2023-04-08T08:12:45;12.03;74.39
71206;SHT31;58935;54.498;18.544;2023-04-08T08:15:12;11.92;74.77
71206;SHT31;58935;54.498;18.544;2023-04-08T08:17:38;11.85;74.84
71206;SHT31;58935;54.498;18.544;2023-04-08T08:20:06;11.77;74.52
71206;SHT31;58935;54.498;18.544;2023-04-08T08:22:34;11.67;74.43
71206;SHT31;58935;54.498;18.544;2023-04-08T08:25:02;11.60;74.64
71206;SHT31;58935;54.498;18.544;2023-04-08T08:27:28;11.55;74.75
71206;SHT31;58935;54.498;18.544;2023-04-08T08:29:53;11.51;74.96
71206;SHT31;58935;54.498;18.544;2023-04-08T08:32:19;11.51;75.04
71206;SHT31;58935;54.498;18.544;2023-04-08T08:34:44;11.53;74.97
71206;SHT31;58935;54.498;18.544;2023-04-08T08:37:12;11.58;75.11
71206;SHT31;58935;54.498;18.544;2023-04-08T08:39:37;11.70;75.51
71206;SHT31;58935;54.498;18.544;2023-04-08T08:42:03;11.84;75.57
71206;SHT31;58935;54.498;18.544;2023-04-08T08:44:30;11.97;75.26
71206;SHT31;58935;54.498;18.544;2023-04-08T08:46:56;12.03;74.62
71206;SHT31;58935;54.498;18.544;2023-04-08T08:49:21;12.05;74.34
71206;SHT31;58935;54.498;18.544;2023-04-08T08:51:47;12.08;74.14
71206;SHT31;58935;54.498;18.544;2023-04-08T08:54:15;12.09;73.90
71206;SHT31;58935;54.498;18.544;2023-04-08T08:56:41;12.13;74.20
71206;SHT31;58935;54.498;18.544;2023-04-08T08:59:07;12.21;74.10
71206;SHT31;58935;54.498;18.544;2023-04-08T09:01:35;12.27;73.84
71206;SHT31;58935;54.498;18.544;2023-04-08T09:06:31;12.35;73.56
71206;SHT31;58935;54.498;18.544;2023-04-08T09:08:57;12.45;73.46
71206;SHT31;58935;54.498;18.544;2023-04-08T09:11:22;12.51;72.80
71206;SHT31;58935;54.498;18.544;2023-04-08T09:13:47;12.54;72.90
71206;SHT31;58935;54.498;18.544;2023-04-08T09:16:13;12.59;72.82
71206;SHT31;58935;54.498;18.544;2023-04-08T09:18:42;12.63;72.67
71206;SHT31;58935;54.498;18.544;2023-04-08T09:21:11;12.65;72.39
71206;SHT31;58935;54.498;18.544;2023-04-08T09:23:42;12.66;72.25
71206;SHT31;58935;54.498;18.544;2023-04-08T09:26:11;12.70;72.38
71206;SHT31;58935;54.498;18.544;2023-04-08T09:28:40;12.71;72.03
71206;SHT31;58935;54.498;18.544;2023-04-08T09:31:25;12.71;71.99
71206;SHT31;58935;54.498;18.544;2023-04-08T09:33:53;12.70;71.65
71206;SHT31;58935;54.498;18.544;2023-04-08T09:36:23;12.68;71.87
71206;SHT31;58935;54.498;18.544;2023-04-08T09:38:51;12.71;71.78
71206;SHT31;58935;54.498;18.544;2023-04-08T09:41:18;12.73;71.77
71206;SHT31;58935;54.498;18.544;2023-04-08T09:43:47;12.79;71.51
71206;SHT31;58935;54.498;18.544;2023-04-08T09:46:14;12.82;71.42
71206;SHT31;58935;54.498;18.544;2023-04-08T09:51:15;12.95;71.72
71206;SHT31;58935;54.498;18.544;2023-04-08T09:53:47;13.01;71.05
71206;SHT31;58935;54.498;18.544;2023-04-08T09:56:14;13.06;71.53
71206;SHT31;58935;54.498;18.544;2023-04-08T09:58:47;13.23;72.03
71206;SHT31;58935;54.498;18.544;2023-04-08T10:01:17;13.43;71.00
71206;SHT31;58935;54.498;18.544;2023-04-08T10:03:49;13.46;69.96
71206;SHT31;58935;54.498;18.544;2023-04-08T10:06:21;13.38;69.52
71206;SHT31;58935;54.498;18.544;2023-04-08T10:08:52;13.29;70.06
71206;SHT31;58935;54.498;18.544;2023-04-08T10:11:18;13.21;70.01
71206;SHT31;58935;54.498;18.544;2023-04-08T10:13:43;13.12;70.50
71206;SHT31;58935;54.498;18.544;2023-04-08T10:18:41;12.92;70.81
71206;SHT31;58935;54.498;18.544;2023-04-08T10:26:28;12.86;70.98
71206;SHT31;58935;54.498;18.544;2023-04-08T10:29:20;12.79;70.80
71206;SHT31;58935;54.498;18.544;2023-04-08T10:31:54;12.61;70.61
71206;SHT31;58935;54.498;18.544;2023-04-08T10:34:22;12.53;71.48
71206;SHT31;58935;54.498;18.544;2023-04-08T10:36:50;12.50;71.37
71206;SHT31;58935;54.498;18.544;2023-04-08T10:39:17;12.42;71.58
71206;SHT31;58935;54.498;18.544;2023-04-08T10:41:43;12.41;71.89
71206;SHT31;58935;54.498;18.544;2023-04-08T10:46:43;12.53;71.98
71206;SHT31;58935;54.498;18.544;2023-04-08T10:49:09;12.65;72.13
71206;SHT31;58935;54.498;18.544;2023-04-08T10:51:37;12.76;71.65
71206;SHT31;58935;54.498;18.544;2023-04-08T10:54:05;12.80;71.05
71206;SHT31;58935;54.498;18.544;2023-04-08T10:56:33;12.81;70.51
71206;SHT31;58935;54.498;18.544;2023-04-08T10:59:00;12.88;70.44
71206;SHT31;58935;54.498;18.544;2023-04-08T11:01:25;13.00;70.41
71206;SHT31;58935;54.498;18.544;2023-04-08T11:03:51;13.12;69.83
71206;SHT31;58935;54.498;18.544;2023-04-08T11:06:17;13.17;68.92
71206;SHT31;58935;54.498;18.544;2023-04-08T11:08:43;13.20;69.09
71206;SHT31;58935;54.498;18.544;2023-04-08T11:11:09;13.29;69.21
71206;SHT31;58935;54.498;18.544;2023-04-08T11:13:36;13.42;68.74
71206;SHT31;58935;54.498;18.544;2023-04-08T11:16:07;13.51;68.32
71206;SHT31;58935;54.498;18.544;2023-04-08T11:18:33;13.54;68.12
71206;SHT31;58935;54.498;18.544;2023-04-08T11:21:00;13.54;67.59
71206;SHT31;58935;54.498;18.544;2023-04-08T11:23:26;13.51;66.42
71206;SHT31;58935;54.498;18.544;2023-04-08T11:25:54;13.46;66.83
71206;SHT31;58935;54.498;18.544;2023-04-08T11:28:20;13.44;67.69
71206;SHT31;58935;54.498;18.544;2023-04-08T11:30:46;13.44;67.76
71206;SHT31;58935;54.498;18.544;2023-04-08T11:33:12;13.36;67.71
71206;SHT31;58935;54.498;18.544;2023-04-08T11:35:39;13.26;68.01
71206;SHT31;58935;54.498;18.544;2023-04-08T11:38:06;13.15;68.18
71206;SHT31;58935;54.498;18.544;2023-04-08T11:40:33;13.08;68.51
71206;SHT31;58935;54.498;18.544;2023-04-08T11:42:58;13.03;68.60
71206;SHT31;58935;54.498;18.544;2023-04-08T11:45:24;13.02;68.98
71206;SHT31;58935;54.498;18.544;2023-04-08T11:47:49;13.01;68.96
71206;SHT31;58935;54.498;18.544;2023-04-08T11:50:23;13.05;69.03
71206;SHT31;58935;54.498;18.544;2023-04-08T11:52:52;13.11;69.27
71206;SHT31;58935;54.498;18.544;2023-04-08T11:57:47;13.23;68.53
71206;SHT31;58935;54.498;18.544;2023-04-08T12:00:13;13.15;68.75
71206;SHT31;58935;54.498;18.544;2023-04-08T12:02:39;13.05;69.14
71206;SHT31;58935;54.498;18.544;2023-04-08T12:05:05;12.94;69.47
71206;SHT31;58935;54.498;18.544;2023-04-08T12:07:33;12.86;69.57
71206;SHT31;58935;54.498;18.544;2023-04-08T12:09:58;12.80;69.75
71206;SHT31;58935;54.498;18.544;2023-04-08T12:12:23;12.81;69.86
71206;SHT31;58935;54.498;18.544;2023-04-08T12:14:49;12.83;69.47
71206;SHT31;58935;54.498;18.544;2023-04-08T12:17:14;12.86;69.37
71206;SHT31;58935;54.498;18.544;2023-04-08T12:19:40;12.79;69.21
71206;SHT31;58935;54.498;18.544;2023-04-08T12:22:05;12.68;69.24
71206;SHT31;58935;54.498;18.544;2023-04-08T12:24:33;12.56;69.69
71206;SHT31;58935;54.498;18.544;2023-04-08T12:26:58;12.48;69.97
71206;SHT31;58935;54.498;18.544;2023-04-08T12:29:24;12.36;70.20
71206;SHT31;58935;54.498;18.544;2023-04-08T12:31:54;12.29;70.46
71206;SHT31;58935;54.498;18.544;2023-04-08T12:34:22;12.26;70.75
71206;SHT31;58935;54.498;18.544;2023-04-08T12:36:48;12.24;70.59
71206;SHT31;58935;54.498;18.544;2023-04-08T12:39:16;12.09;70.61
71206;SHT31;58935;54.498;18.544;2023-04-08T12:41:43;11.89;71.12
71206;SHT31;58935;54.498;18.544;2023-04-08T12:44:09;11.75;71.47
71206;SHT31;58935;54.498;18.544;2023-04-08T12:46:34;11.70;71.99
71206;SHT31;58935;54.498;18.544;2023-04-08T12:49:02;11.72;72.21
71206;SHT31;58935;54.498;18.544;2023-04-08T12:51:28;11.74;72.36
71206;SHT31;58935;54.498;18.544;2023-04-08T12:53:56;11.73;72.08
71206;SHT31;58935;54.498;18.544;2023-04-08T12:56:21;11.66;72.09
71206;SHT31;58935;54.498;18.544;2023-04-08T12:58:47;11.58;72.32
71206;SHT31;58935;54.498;18.544;2023-04-08T13:01:12;11.52;72.55
71206;SHT31;58935;54.498;18.544;2023-04-08T13:03:38;11.47;72.68
71206;SHT31;58935;54.498;18.544;2023-04-08T13:06:04;11.47;72.80
71206;SHT31;58935;54.498;18.544;2023-04-08T13:08:29;11.50;72.74
71206;SHT31;58935;54.498;18.544;2023-04-08T13:10:56;11.55;72.58
71206;SHT31;58935;54.498;18.544;2023-04-08T13:13:22;11.62;72.39
71206;SHT31;58935;54.498;18.544;2023-04-08T13:15:50;11.66;71.99
71206;SHT31;58935;54.498;18.544;2023-04-08T13:18:16;11.70;71.82
71206;SHT31;58935;54.498;18.544;2023-04-08T13:20:41;11.78;71.78
71206;SHT31;58935;54.498;18.544;2023-04-08T13:23:07;11.88;71.36
71206;SHT31;58935;54.498;18.544;2023-04-08T13:25:32;11.98;71.03
71206;SHT31;58935;54.498;18.544;2023-04-08T13:28:00;12.00;70.36
71206;SHT31;58935;54.498;18.544;2023-04-08T13:30:28;12.01;70.49
71206;SHT31;58935;54.498;18.544;2023-04-08T13:32:53;12.00;70.29
71206;SHT31;58935;54.498;18.544;2023-04-08T13:35:18;11.97;70.27
71206;SHT31;58935;54.498;18.544;2023-04-08T13:37:44;11.95;70.38
71206;SHT31;58935;54.498;18.544;2023-04-08T13:40:11;11.94;70.43
71206;SHT31;58935;54.498;18.544;2023-04-08T13:42:37;11.94;70.29
71206;SHT31;58935;54.498;18.544;2023-04-08T13:45:05;11.93;70.35
71206;SHT31;58935;54.498;18.544;2023-04-08T13:47:31;11.94;70.02
71206;SHT31;58935;54.498;18.544;2023-04-08T13:49:57;11.88;69.82
71206;SHT31;58935;54.498;18.544;2023-04-08T13:52:22;11.83;70.24
71206;SHT31;58935;54.498;18.544;2023-04-08T13:54:48;11.81;70.71
71206;SHT31;58935;54.498;18.544;2023-04-08T13:57:13;11.82;70.99
71206;SHT31;58935;54.498;18.544;2023-04-08T13:59:38;11.83;71.31
71206;SHT31;58935;54.498;18.544;2023-04-08T14:02:06;11.85;71.49
71206;SHT31;58935;54.498;18.544;2023-04-08T14:04:32;11.83;71.52
71206;SHT31;58935;54.498;18.544;2023-04-08T14:06:57;11.80;71.51
71206;SHT31;58935;54.498;18.544;2023-04-08T14:09:25;11.72;71.40
71206;SHT31;58935;54.498;18.544;2023-04-08T14:11:50;11.57;71.37
71206;SHT31;58935;54.498;18.544;2023-04-08T14:14:16;11.42;71.65
71206;SHT31;58935;54.498;18.544;2023-04-08T14:16:41;11.33;71.63
71206;SHT31;58935;54.498;18.544;2023-04-08T14:19:09;11.19;71.49
71206;SHT31;58935;54.498;18.544;2023-04-08T14:21:37;11.01;71.74
71206;SHT31;58935;54.498;18.544;2023-04-08T14:24:03;10.90;72.02
71206;SHT31;58935;54.498;18.544;2023-04-08T14:26:29;10.79;72.03
71206;SHT31;58935;54.498;18.544;2023-04-08T14:28:57;10.71;72.07
71206;SHT31;58935;54.498;18.544;2023-04-08T14:31:22;10.57;71.75
71206;SHT31;58935;54.498;18.544;2023-04-08T14:33:47;10.38;72.02
71206;SHT31;58935;54.498;18.544;2023-04-08T14:36:13;10.21;72.49
71206;SHT31;58935;54.498;18.544;2023-04-08T14:38:38;10.06;72.72
71206;SHT31;58935;54.498;18.544;2023-04-08T14:41:06;9.87;73.11
71206;SHT31;58935;54.498;18.544;2023-04-08T14:43:34;9.75;73.48
71206;SHT31;58935;54.498;18.544;2023-04-08T14:46:02;9.67;73.74
71206;SHT31;58935;54.498;18.544;2023-04-08T14:48:27;9.63;73.97
71206;SHT31;58935;54.498;18.544;2023-04-08T14:50:55;9.58;74.27
71206;SHT31;58935;54.498;18.544;2023-04-08T14:53:21;9.55;74.44
71206;SHT31;58935;54.498;18.544;2023-04-08T14:55:47;9.54;74.76
71206;SHT31;58935;54.498;18.544;2023-04-08T14:58:13;9.56;74.74
71206;SHT31;58935;54.498;18.544;2023-04-08T15:00:38;9.55;74.77
71206;SHT31;58935;54.498;18.544;2023-04-08T15:03:08;9.55;74.88
71206;SHT31;58935;54.498;18.544;2023-04-08T15:05:39;9.59;75.02
71206;SHT31;58935;54.498;18.544;2023-04-08T15:08:04;9.66;74.94
71206;SHT31;58935;54.498;18.544;2023-04-08T15:10:30;9.76;75.11
71206;SHT31;58935;54.498;18.544;2023-04-08T15:12:58;9.88;74.95
71206;SHT31;58935;54.498;18.544;2023-04-08T15:15:25;9.93;74.36
71206;SHT31;58935;54.498;18.544;2023-04-08T15:17:51;9.98;74.52
71206;SHT31;58935;54.498;18.544;2023-04-08T15:20:16;10.11;74.97
71206;SHT31;58935;54.498;18.544;2023-04-08T15:22:44;10.24;74.62
71206;SHT31;58935;54.498;18.544;2023-04-08T15:25:09;10.37;74.26
71206;SHT31;58935;54.498;18.544;2023-04-08T15:27:35;10.48;73.83
71206;SHT31;58935;54.498;18.544;2023-04-08T15:30:01;10.56;73.55
71206;SHT31;58935;54.498;18.544;2023-04-08T15:32:28;10.61;73.24
71206;SHT31;58935;54.498;18.544;2023-04-08T15:34:53;10.63;72.98
71206;SHT31;58935;54.498;18.544;2023-04-08T15:37:19;10.64;73.00
71206;SHT31;58935;54.498;18.544;2023-04-08T15:39:47;10.63;72.92
71206;SHT31;58935;54.498;18.544;2023-04-08T15:42:12;10.60;72.88